Terminal Aerodrome Forecast
Issued by NWS

Home | Current Version | Previous Version | Text Only | Print | Product List | Glossary On
Versions: 1 2 3 4 5 6 7 8 9 10 11 12 13
459
FTUS45 KGGW 210520
TAFSDY
TAF
KSDY 210520Z 2106/2206 28005KT P6SM BKN080
     FM212300 29005KT P6SM BKN025=

USA.gov is the U.S. government's official web portal to all federal, state and local government web resources and services.